首页
METAR-TAF:

METAR-TAF

机场 :

Cumberland, 威斯康辛州, 美国

纬度: 45-30-21N, 经度: 091-58-52W, 海拔: 379米

当前天气观测

该预报发布于20分钟前的08:35 UTC
静风
温度 19°C
湿度 94%
气压 1006 hPa
阴天层高于100英尺

METAR: KUBE 190835Z AUTO 00000KT M1/4SM FG OVC001 19/18 A2971 RMK AO2

时间: 03:55 (08:55 UTC)


TAF: 丢失

超过4000个机场的气象观测和天气预报(METAR&TAF报告)。

可查询的气象台以黄色和红色小点在地图上表示。

将鼠标移到小点上方,可查看气象台名称。

然后点击查看天气观测和预报。

如需切换地图:点击带黑十字的绿色按钮放大地图;点击带横线的绿色按钮缩小地图;或者点击绿色箭头查看邻近地区的地图。


METAR-TAF: